createdAt,value
2016-12-09T00:00:15.646Z,22.07
2016-12-09T00:00:32.352Z,21.97
2016-12-09T00:00:49.054Z,21.91
2016-12-09T00:01:05.775Z,21.91
2016-12-09T00:01:23.003Z,21.97
2016-12-09T00:01:39.724Z,21.91
2016-12-09T00:01:56.442Z,21.94
2016-12-09T00:02:13.171Z,21.97
2016-12-09T00:02:29.865Z,21.95
2016-12-09T00:02:46.591Z,21.91
2016-12-09T00:03:03.314Z,21.91
2016-12-09T00:03:20.047Z,21.91
2016-12-09T00:03:36.740Z,21.89
2016-12-09T00:03:53.437Z,21.91
2016-12-09T00:04:10.134Z,21.78
2016-12-09T00:04:26.864Z,21.85
2016-12-09T00:04:43.617Z,21.89
2016-12-09T00:05:00.333Z,21.94
2016-12-09T00:05:17.057Z,21.89
2016-12-09T00:05:33.796Z,21.98
2016-12-09T00:05:50.511Z,22
2016-12-09T00:06:07.252Z,21.91
2016-12-09T00:06:23.965Z,21.97
2016-12-09T00:06:40.660Z,21.91
2016-12-09T00:06:57.390Z,21.94
2016-12-09T00:07:14.101Z,21.92
2016-12-09T00:07:30.840Z,21.92
2016-12-09T00:07:47.587Z,21.95
2016-12-09T00:08:04.293Z,21.91
2016-12-09T00:08:21.038Z,22
2016-12-09T00:08:37.729Z,22.04
2016-12-09T00:08:54.429Z,22.02
2016-12-09T00:09:11.170Z,22.04
2016-12-09T00:09:27.907Z,21.98
2016-12-09T00:09:44.627Z,22.07
2016-12-09T00:10:01.357Z,22.01
2016-12-09T00:10:18.091Z,22.05
2016-12-09T00:10:34.795Z,22.05
2016-12-09T00:10:51.502Z,22.01
2016-12-09T00:11:08.222Z,22.04
2016-12-09T00:11:24.959Z,22.04
2016-12-09T00:11:41.694Z,22.05
2016-12-09T00:11:58.939Z,22.05
2016-12-09T00:12:15.663Z,22.07
2016-12-09T00:12:32.399Z,22.07
2016-12-09T00:12:49.338Z,21.97
2016-12-09T00:13:06.044Z,21.98
2016-12-09T00:13:22.762Z,22
2016-12-09T00:13:39.492Z,21.95
2016-12-09T00:13:56.222Z,21.89
2016-12-09T00:14:12.941Z,21.89
2016-12-09T00:14:29.657Z,21.94
2016-12-09T00:14:46.383Z,21.85
2016-12-09T00:15:03.101Z,21.85
2016-12-09T00:15:19.775Z,21.95
2016-12-09T00:15:36.480Z,22
2016-12-09T00:15:53.185Z,21.92
2016-12-09T00:16:09.889Z,21.85
2016-12-09T00:16:26.653Z,21.97
2016-12-09T00:16:43.378Z,21.94
2016-12-09T00:17:00.087Z,21.92
2016-12-09T00:17:16.814Z,22.01
2016-12-09T00:17:33.549Z,21.86
2016-12-09T00:17:50.289Z,22
2016-12-09T00:18:07.007Z,22.04
2016-12-09T00:18:23.725Z,22.05
2016-12-09T00:18:41.158Z,22.07
2016-12-09T00:18:57.873Z,22.07
2016-12-09T00:19:14.591Z,22.08
2016-12-09T00:19:31.305Z,22.02
2016-12-09T00:19:47.997Z,21.94
2016-12-09T00:20:04.731Z,21.94
2016-12-09T00:20:21.953Z,21.95
2016-12-09T00:20:38.648Z,21.89
2016-12-09T00:20:55.363Z,21.89
2016-12-09T00:21:12.056Z,21.81
2016-12-09T00:21:28.763Z,21.92
2016-12-09T00:21:45.490Z,21.86
2016-12-09T00:22:02.213Z,21.91
2016-12-09T00:22:18.936Z,21.92
2016-12-09T00:22:35.646Z,21.91
2016-12-09T00:22:52.346Z,22
2016-12-09T00:23:09.066Z,21.94
2016-12-09T00:23:25.788Z,21.94
2016-12-09T00:23:42.553Z,21.84
2016-12-09T00:23:59.284Z,21.97
2016-12-09T00:24:16.014Z,21.95
2016-12-09T00:24:32.720Z,21.92
2016-12-09T00:24:50.024Z,21.97
2016-12-09T00:25:06.743Z,22.01
2016-12-09T00:25:23.510Z,21.98
2016-12-09T00:25:40.225Z,21.95
2016-12-09T00:25:56.922Z,21.98
2016-12-09T00:26:13.605Z,21.84
2016-12-09T00:26:30.346Z,21.95
2016-12-09T00:26:47.086Z,21.79
2016-12-09T00:27:03.811Z,21.92
2016-12-09T00:27:20.519Z,21.76
2016-12-09T00:27:37.242Z,21.79
2016-12-09T00:27:53.960Z,21.84
2016-12-09T00:28:10.676Z,21.85
2016-12-09T00:28:27.384Z,21.81
2016-12-09T00:28:44.123Z,21.94
2016-12-09T00:29:00.845Z,21.97
2016-12-09T00:29:17.583Z,22
2016-12-09T00:29:34.283Z,21.92
2016-12-09T00:29:51.020Z,21.91
2016-12-09T00:30:07.764Z,21.86
2016-12-09T00:30:24.477Z,21.79
2016-12-09T00:30:41.194Z,21.78
2016-12-09T00:30:57.916Z,21.75
2016-12-09T00:31:14.671Z,21.76
2016-12-09T00:31:31.434Z,21.84
2016-12-09T00:31:48.152Z,21.72
2016-12-09T00:32:04.904Z,21.76
2016-12-09T00:32:21.607Z,21.76
2016-12-09T00:32:38.304Z,21.78
2016-12-09T00:32:54.986Z,21.84
2016-12-09T00:33:11.714Z,21.95
2016-12-09T00:33:28.467Z,21.81
2016-12-09T00:33:45.167Z,21.85
2016-12-09T00:34:01.889Z,21.84
2016-12-09T00:34:18.620Z,21.85
2016-12-09T00:34:35.340Z,21.82
2016-12-09T00:34:52.083Z,21.81
2016-12-09T00:35:08.797Z,21.85
2016-12-09T00:35:25.518Z,21.81
2016-12-09T00:35:42.221Z,21.85
2016-12-09T00:35:58.959Z,21.97
2016-12-09T00:36:15.693Z,21.91
2016-12-09T00:36:32.419Z,21.91
2016-12-09T00:36:49.137Z,21.97
2016-12-09T00:37:05.844Z,21.92
2016-12-09T00:37:22.579Z,21.91
2016-12-09T00:37:39.312Z,21.95
2016-12-09T00:37:56.034Z,21.85
2016-12-09T00:38:12.777Z,21.98
2016-12-09T00:38:29.490Z,21.92
2016-12-09T00:38:46.208Z,21.98
2016-12-09T00:39:02.938Z,21.98
2016-12-09T00:39:19.616Z,22
2016-12-09T00:39:36.383Z,22.02
2016-12-09T00:39:53.120Z,22.04
2016-12-09T00:40:09.851Z,22.07
2016-12-09T00:40:27.144Z,22.04
2016-12-09T00:40:43.846Z,22.1
2016-12-09T00:41:00.567Z,22.02
2016-12-09T00:41:17.293Z,21.98
2016-12-09T00:41:33.994Z,22.02
2016-12-09T00:41:50.706Z,22.02
2016-12-09T00:42:07.462Z,22.1
2016-12-09T00:42:24.168Z,22.17
2016-12-09T00:42:40.864Z,22.1
2016-12-09T00:42:57.574Z,22.12
2016-12-09T00:43:14.305Z,22.01
2016-12-09T00:43:31.049Z,22.16
2016-12-09T00:43:47.780Z,22.04
2016-12-09T00:44:05.014Z,22.1
2016-12-09T00:44:21.738Z,22.05
2016-12-09T00:44:38.447Z,22.07
2016-12-09T00:44:55.193Z,22.05
2016-12-09T00:45:11.906Z,22.04
2016-12-09T00:45:28.616Z,22.02
2016-12-09T00:45:45.353Z,22.04
2016-12-09T00:46:02.085Z,22.05
2016-12-09T00:46:18.823Z,22
2016-12-09T00:46:35.540Z,22.16
2016-12-09T00:46:52.260Z,22.1
2016-12-09T00:47:08.976Z,22.16
2016-12-09T00:47:25.687Z,22.04
2016-12-09T00:47:42.415Z,22.05
2016-12-09T00:47:59.118Z,22.1
2016-12-09T00:48:15.811Z,22.02
2016-12-09T00:48:32.539Z,22.05
2016-12-09T00:48:49.288Z,22.17
2016-12-09T00:49:06.020Z,22.1
2016-12-09T00:49:22.747Z,22.05
2016-12-09T00:49:39.467Z,22.02
2016-12-09T00:49:56.159Z,22.1
2016-12-09T00:50:12.856Z,22.1
2016-12-09T00:50:29.585Z,22.04
2016-12-09T00:50:46.301Z,22.07
2016-12-09T00:51:03.010Z,21.98
2016-12-09T00:51:19.760Z,22.1
2016-12-09T00:51:36.455Z,22.08
2016-12-09T00:51:53.176Z,22.08
2016-12-09T00:52:09.917Z,22.01
2016-12-09T00:52:27.156Z,22.01
2016-12-09T00:52:43.872Z,22.02
2016-12-09T00:53:01.126Z,22.05
2016-12-09T00:53:17.859Z,22.07
2016-12-09T00:53:34.564Z,22.02
2016-12-09T00:53:51.282Z,21.98
2016-12-09T00:54:07.985Z,21.94
2016-12-09T00:54:24.693Z,22.02
2016-12-09T00:54:41.429Z,22.04
2016-12-09T00:54:58.150Z,21.98
2016-12-09T00:55:14.852Z,22.02
2016-12-09T00:55:31.594Z,21.98
2016-12-09T00:55:48.318Z,22.02
2016-12-09T00:56:05.052Z,22.04
2016-12-09T00:56:21.772Z,22.01
2016-12-09T00:56:38.461Z,22.07
2016-12-09T00:56:55.169Z,22.05
2016-12-09T00:57:11.880Z,22.02
2016-12-09T00:57:28.616Z,22.05
2016-12-09T00:57:45.356Z,22.12
2016-12-09T00:58:02.069Z,22.17
2016-12-09T00:58:18.790Z,22.13
2016-12-09T00:58:35.484Z,22.07
2016-12-09T00:58:52.179Z,22.05
2016-12-09T00:59:09.400Z,22.04
2016-12-09T00:59:26.120Z,22.02
2016-12-09T00:59:43.382Z,22.01
2016-12-09T01:00:00.108Z,22.02
2016-12-09T01:00:16.806Z,22.02
2016-12-09T01:00:33.551Z,22.02
2016-12-09T01:00:50.276Z,22.05
2016-12-09T01:01:07.004Z,22.01
2016-12-09T01:01:23.714Z,22.15
2016-12-09T01:01:40.429Z,22.12
2016-12-09T01:01:57.164Z,22.12
2016-12-09T01:02:13.896Z,22.13
2016-12-09T01:02:30.608Z,22.16
2016-12-09T01:02:47.351Z,22.17
2016-12-09T01:03:04.092Z,22.17
2016-12-09T01:03:20.837Z,22.17
2016-12-09T01:03:37.545Z,22.12
2016-12-09T01:03:54.255Z,22.17
2016-12-09T01:04:10.974Z,22.07
2016-12-09T01:04:27.714Z,22.1
2016-12-09T01:04:44.440Z,22.1
2016-12-09T01:05:01.175Z,22.15
2016-12-09T01:05:17.902Z,22.02
2016-12-09T01:05:34.611Z,22.02
2016-12-09T01:05:51.342Z,22.05
2016-12-09T01:06:08.099Z,22.04
2016-12-09T01:06:25.360Z,22.07
2016-12-09T01:06:42.096Z,22.05
2016-12-09T01:06:58.816Z,22.07
2016-12-09T01:07:15.529Z,22
2016-12-09T01:07:32.227Z,21.97
2016-12-09T01:07:48.955Z,21.75
2016-12-09T01:08:05.677Z,21.78
2016-12-09T01:08:22.380Z,21.79
2016-12-09T01:08:39.093Z,21.82
2016-12-09T01:08:55.808Z,21.79
2016-12-09T01:09:12.518Z,21.84
2016-12-09T01:09:29.209Z,21.78
2016-12-09T01:09:45.897Z,21.76
2016-12-09T01:10:02.646Z,21.76
2016-12-09T01:10:19.385Z,21.76
2016-12-09T01:10:36.126Z,21.84
2016-12-09T01:10:52.855Z,21.85
2016-12-09T01:11:09.570Z,21.82
2016-12-09T01:11:26.313Z,21.95
2016-12-09T01:11:43.034Z,22.01
2016-12-09T01:11:59.799Z,22
2016-12-09T01:12:16.533Z,21.92
2016-12-09T01:12:33.274Z,22.01
2016-12-09T01:12:49.975Z,21.82
2016-12-09T01:13:06.693Z,21.97
2016-12-09T01:13:23.401Z,21.95
2016-12-09T01:13:40.127Z,21.98
2016-12-09T01:13:56.867Z,22
2016-12-09T01:14:13.593Z,22
2016-12-09T01:14:30.289Z,22
2016-12-09T01:14:46.998Z,22.01
2016-12-09T01:15:03.729Z,22
2016-12-09T01:15:20.415Z,22.02
2016-12-09T01:15:37.135Z,22.02
2016-12-09T01:15:53.862Z,22.02
2016-12-09T01:16:10.580Z,22.07
2016-12-09T01:16:27.276Z,22.07
2016-12-09T01:16:44.015Z,22
2016-12-09T01:17:00.749Z,22.1
2016-12-09T01:17:17.464Z,22.02
2016-12-09T01:17:34.169Z,22.01
2016-12-09T01:17:50.884Z,22.04
2016-12-09T01:18:07.611Z,22
2016-12-09T01:18:24.320Z,22.07
2016-12-09T01:18:41.019Z,22.12
2016-12-09T01:18:57.743Z,22.05
2016-12-09T01:19:14.476Z,22.07
2016-12-09T01:19:31.200Z,22.02
2016-12-09T01:19:47.895Z,21.98
2016-12-09T01:20:04.612Z,21.91
2016-12-09T01:20:21.823Z,22.01
2016-12-09T01:20:38.517Z,22.01
2016-12-09T01:20:55.239Z,22
2016-12-09T01:21:11.967Z,21.97
2016-12-09T01:21:28.682Z,21.98
2016-12-09T01:21:45.403Z,22.07
2016-12-09T01:22:02.123Z,22.01
2016-12-09T01:22:18.847Z,22.08
2016-12-09T01:22:35.563Z,22.01
2016-12-09T01:22:52.278Z,22.05
2016-12-09T01:23:08.974Z,22.01
2016-12-09T01:23:25.680Z,22.04
2016-12-09T01:23:42.374Z,21.98
2016-12-09T01:23:59.103Z,21.92
2016-12-09T01:24:15.830Z,21.97
2016-12-09T01:24:32.555Z,21.92
2016-12-09T01:24:49.282Z,21.94
2016-12-09T01:25:05.996Z,21.92
2016-12-09T01:25:22.699Z,21.91
2016-12-09T01:25:39.417Z,22
2016-12-09T01:25:56.671Z,22
2016-12-09T01:26:13.389Z,22.04
2016-12-09T01:26:30.102Z,22.05
2016-12-09T01:26:46.862Z,22.02
2016-12-09T01:27:03.587Z,22.08
2016-12-09T01:27:20.310Z,22.05
2016-12-09T01:27:37.051Z,22.04
2016-12-09T01:27:53.786Z,22.04
2016-12-09T01:28:10.500Z,22.1
2016-12-09T01:28:27.218Z,22.04
2016-12-09T01:28:43.947Z,21.91
2016-12-09T01:29:00.635Z,21.91
2016-12-09T01:29:17.341Z,21.98
2016-12-09T01:29:34.077Z,22.01
2016-12-09T01:29:50.793Z,22.08
2016-12-09T01:30:07.517Z,22.02
2016-12-09T01:30:24.254Z,22.01
2016-12-09T01:30:40.958Z,22.05
2016-12-09T01:30:57.687Z,22
2016-12-09T01:31:14.417Z,22.12
2016-12-09T01:31:31.170Z,22.02
2016-12-09T01:31:48.386Z,22.15
2016-12-09T01:32:05.107Z,22.08
2016-12-09T01:32:21.833Z,22.15
2016-12-09T01:32:38.580Z,22.17
2016-12-09T01:32:55.296Z,22.12
2016-12-09T01:33:12.015Z,22.2
2016-12-09T01:33:28.749Z,22.15
2016-12-09T01:33:45.473Z,22.12
2016-12-09T01:34:02.691Z,22.07
2016-12-09T01:34:19.429Z,22.02
2016-12-09T01:34:36.144Z,21.86
2016-12-09T01:34:52.869Z,21.92
2016-12-09T01:35:09.569Z,21.92
2016-12-09T01:35:26.283Z,21.86
2016-12-09T01:35:42.994Z,21.95
2016-12-09T01:35:59.700Z,21.89
2016-12-09T01:36:16.394Z,21.94
2016-12-09T01:36:33.103Z,21.94
2016-12-09T01:36:49.824Z,22
2016-12-09T01:37:06.554Z,21.85
2016-12-09T01:37:23.296Z,21.85
2016-12-09T01:37:40.019Z,21.82
2016-12-09T01:37:57.270Z,21.78
2016-12-09T01:38:14.000Z,21.78
2016-12-09T01:38:30.745Z,21.76
2016-12-09T01:38:47.470Z,21.78
2016-12-09T01:39:04.702Z,21.79
2016-12-09T01:39:21.412Z,21.74
2016-12-09T01:39:38.145Z,21.81
2016-12-09T01:39:54.877Z,21.84
2016-12-09T01:40:11.609Z,21.76
2016-12-09T01:40:28.341Z,21.78
2016-12-09T01:40:45.100Z,21.79
2016-12-09T01:41:01.811Z,21.78
2016-12-09T01:41:18.528Z,21.72
2016-12-09T01:41:35.250Z,21.64
2016-12-09T01:41:51.981Z,21.63
2016-12-09T01:42:08.708Z,21.63
2016-12-09T01:42:25.440Z,21.7
2016-12-09T01:42:42.189Z,21.7
2016-12-09T01:42:58.900Z,21.69
2016-12-09T01:43:15.626Z,21.7
2016-12-09T01:43:32.343Z,21.63
2016-12-09T01:43:49.063Z,21.59
2016-12-09T01:44:05.787Z,21.66
2016-12-09T01:44:22.504Z,21.66
2016-12-09T01:44:39.230Z,21.57
2016-12-09T01:44:55.961Z,21.54
2016-12-09T01:45:12.732Z,21.57
2016-12-09T01:45:29.456Z,21.57
2016-12-09T01:45:46.161Z,21.57
2016-12-09T01:46:02.866Z,21.57
2016-12-09T01:46:19.582Z,21.56
2016-12-09T01:46:36.305Z,21.53
2016-12-09T01:46:53.021Z,21.59
2016-12-09T01:47:09.714Z,21.59
2016-12-09T01:47:26.441Z,21.6
2016-12-09T01:47:43.153Z,21.59
2016-12-09T01:47:59.901Z,21.57
2016-12-09T01:48:16.624Z,21.57
2016-12-09T01:48:33.360Z,21.48
2016-12-09T01:48:50.077Z,21.51
2016-12-09T01:49:06.787Z,21.61
2016-12-09T01:49:23.487Z,21.48
2016-12-09T01:49:40.174Z,21.6
2016-12-09T01:49:56.883Z,21.46
2016-12-09T01:50:13.620Z,21.48
2016-12-09T01:50:30.341Z,21.56
2016-12-09T01:50:47.072Z,21.54
2016-12-09T01:51:03.780Z,21.57
2016-12-09T01:51:20.509Z,21.46
2016-12-09T01:51:37.216Z,21.51
2016-12-09T01:51:53.925Z,21.49
2016-12-09T01:52:10.647Z,21.49
2016-12-09T01:52:27.390Z,21.48
2016-12-09T01:52:44.073Z,21.46
2016-12-09T01:53:00.773Z,21.45
2016-12-09T01:53:17.547Z,21.42
2016-12-09T01:53:34.277Z,21.38
2016-12-09T01:53:50.971Z,21.44
2016-12-09T01:54:07.696Z,21.45
2016-12-09T01:54:24.445Z,21.44
2016-12-09T01:54:41.141Z,21.42
2016-12-09T01:54:57.867Z,21.45
2016-12-09T01:55:14.608Z,21.45
2016-12-09T01:55:31.383Z,21.41
2016-12-09T01:55:48.089Z,21.39
2016-12-09T01:56:04.835Z,21.41
2016-12-09T01:56:21.534Z,21.53
2016-12-09T01:56:38.234Z,21.48
2016-12-09T01:56:54.953Z,21.49
2016-12-09T01:57:11.656Z,21.6
2016-12-09T01:57:28.370Z,21.59
2016-12-09T01:57:45.071Z,21.51
2016-12-09T01:58:01.789Z,21.63
2016-12-09T01:58:18.535Z,21.54
2016-12-09T01:58:35.260Z,21.56
2016-12-09T01:58:52.023Z,21.63
2016-12-09T01:59:08.719Z,21.51
2016-12-09T01:59:25.434Z,21.51
2016-12-09T01:59:42.138Z,21.66
2016-12-09T01:59:58.818Z,21.61
2016-12-09T02:00:16.047Z,21.67
2016-12-09T02:00:32.772Z,21.69
2016-12-09T02:00:49.528Z,21.69
2016-12-09T02:01:06.236Z,21.69
2016-12-09T02:01:22.966Z,21.64
2016-12-09T02:01:39.717Z,21.7
2016-12-09T02:01:56.432Z,21.7
2016-12-09T02:02:13.156Z,21.72
2016-12-09T02:02:29.853Z,21.75
2016-12-09T02:02:46.549Z,21.78
2016-12-09T02:03:03.258Z,21.75
2016-12-09T02:03:19.970Z,21.79
2016-12-09T02:03:37.196Z,21.79
2016-12-09T02:03:53.890Z,21.79
2016-12-09T02:04:10.628Z,21.79
2016-12-09T02:04:27.344Z,21.78
2016-12-09T02:04:44.067Z,21.82
2016-12-09T02:05:00.795Z,21.79
2016-12-09T02:05:17.516Z,21.76
2016-12-09T02:05:34.258Z,21.84
2016-12-09T02:05:50.977Z,21.76
2016-12-09T02:06:07.687Z,21.79
2016-12-09T02:06:24.408Z,21.81
2016-12-09T02:06:41.106Z,21.86
2016-12-09T02:06:57.832Z,21.79
2016-12-09T02:07:14.563Z,21.91
2016-12-09T02:07:31.292Z,21.78
2016-12-09T02:07:48.538Z,21.64
2016-12-09T02:08:05.251Z,21.63
2016-12-09T02:08:21.949Z,21.66
2016-12-09T02:08:38.658Z,21.69
2016-12-09T02:08:55.395Z,21.63
2016-12-09T02:09:12.080Z,21.66
2016-12-09T02:09:28.786Z,21.69
2016-12-09T02:09:45.510Z,21.69
2016-12-09T02:10:02.208Z,21.69
2016-12-09T02:10:18.912Z,21.69
2016-12-09T02:10:35.624Z,21.66
2016-12-09T02:10:52.352Z,21.64
2016-12-09T02:11:09.087Z,21.63
2016-12-09T02:11:25.791Z,21.67
2016-12-09T02:11:42.494Z,21.74
2016-12-09T02:11:59.236Z,21.64
2016-12-09T02:12:15.972Z,21.69
2016-12-09T02:12:32.698Z,21.67
2016-12-09T02:12:49.433Z,21.69
2016-12-09T02:13:06.170Z,21.67
2016-12-09T02:13:23.420Z,21.74
2016-12-09T02:13:40.136Z,21.7
2016-12-09T02:13:56.835Z,21.67
2016-12-09T02:14:13.519Z,21.66
2016-12-09T02:14:30.235Z,21.69
2016-12-09T02:14:47.196Z,21.64
2016-12-09T02:15:04.371Z,21.7
2016-12-09T02:15:21.550Z,21.64
2016-12-09T02:15:38.740Z,21.53
2016-12-09T02:15:55.929Z,21.63
2016-12-09T02:16:13.670Z,21.57
2016-12-09T02:16:30.836Z,21.61
2016-12-09T02:16:47.994Z,21.54
2016-12-09T02:17:05.174Z,21.54
2016-12-09T02:17:22.361Z,21.56
2016-12-09T02:17:39.548Z,21.63
2016-12-09T02:17:56.747Z,21.51
2016-12-09T02:18:14.485Z,21.54
2016-12-09T02:18:31.701Z,21.54
2016-12-09T02:18:48.899Z,21.51
2016-12-09T02:19:06.081Z,21.64
2016-12-09T02:19:23.251Z,21.57
2016-12-09T02:19:40.442Z,21.59
2016-12-09T02:19:57.640Z,21.6
2016-12-09T02:20:14.817Z,21.66
2016-12-09T02:20:31.997Z,21.53
2016-12-09T02:20:49.196Z,21.51
2016-12-09T02:21:06.349Z,21.53
2016-12-09T02:21:23.524Z,21.49
2016-12-09T02:21:40.708Z,21.53
2016-12-09T02:21:57.887Z,21.6
2016-12-09T02:22:15.091Z,21.54
2016-12-09T02:22:32.255Z,21.51
2016-12-09T02:22:49.423Z,21.51
2016-12-09T02:23:07.174Z,21.46
2016-12-09T02:23:24.343Z,21.49
2016-12-09T02:23:41.539Z,21.59
2016-12-09T02:23:58.722Z,21.63
2016-12-09T02:24:15.912Z,21.64
2016-12-09T02:24:33.107Z,21.69
2016-12-09T02:24:50.294Z,21.75
2016-12-09T02:25:07.509Z,21.76
2016-12-09T02:25:24.701Z,21.72
2016-12-09T02:25:41.916Z,21.72
2016-12-09T02:25:59.092Z,21.74
2016-12-09T02:26:16.300Z,21.79
2016-12-09T02:26:34.036Z,21.78
2016-12-09T02:26:51.217Z,21.7
2016-12-09T02:27:08.382Z,21.76
2016-12-09T02:27:25.546Z,21.79
2016-12-09T02:27:42.727Z,21.74
2016-12-09T02:27:59.912Z,21.89
2016-12-09T02:28:17.086Z,21.78
2016-12-09T02:28:34.283Z,21.85
2016-12-09T02:28:51.475Z,21.91
2016-12-09T02:29:08.672Z,21.86
2016-12-09T02:29:25.876Z,21.91
2016-12-09T02:29:43.087Z,21.85
2016-12-09T02:30:00.275Z,21.92
2016-12-09T02:30:17.450Z,21.94
2016-12-09T02:30:34.621Z,21.85
2016-12-09T02:30:51.806Z,21.86
2016-12-09T02:31:08.946Z,21.89
2016-12-09T02:31:26.130Z,21.82
2016-12-09T02:31:43.308Z,21.86
2016-12-09T02:32:00.500Z,21.92
2016-12-09T02:32:17.680Z,21.91
2016-12-09T02:32:34.845Z,21.92
2016-12-09T02:32:52.013Z,21.97
2016-12-09T02:33:09.201Z,21.89
2016-12-09T02:33:26.379Z,21.95
2016-12-09T02:33:43.566Z,21.92
2016-12-09T02:34:00.725Z,21.94
2016-12-09T02:34:17.915Z,21.95
2016-12-09T02:34:35.063Z,21.95
2016-12-09T02:34:52.209Z,21.97
2016-12-09T02:35:09.418Z,21.92
2016-12-09T02:35:26.576Z,21.95
2016-12-09T02:35:43.803Z,22
2016-12-09T02:36:01.041Z,22.02
2016-12-09T02:36:18.221Z,22
2016-12-09T02:36:35.403Z,22.02
2016-12-09T02:36:52.645Z,22.01
2016-12-09T02:37:09.818Z,22.05
2016-12-09T02:37:27.026Z,22.02
2016-12-09T02:37:44.222Z,22.01
2016-12-09T02:38:01.418Z,22.07
2016-12-09T02:38:18.613Z,22.07
2016-12-09T02:38:35.788Z,22.01
2016-12-09T02:38:53.013Z,22.04
2016-12-09T02:39:10.270Z,22.04
2016-12-09T02:39:27.514Z,22.08
2016-12-09T02:39:44.707Z,22.01
2016-12-09T02:40:01.921Z,22.05
2016-12-09T02:40:19.362Z,22.02
2016-12-09T02:40:36.547Z,22.04
2016-12-09T02:40:53.731Z,22.01
2016-12-09T02:41:10.923Z,22.07
2016-12-09T02:41:28.148Z,22.02
2016-12-09T02:41:45.360Z,22.04
2016-12-09T02:42:02.589Z,22.01
2016-12-09T02:42:19.777Z,22.02
2016-12-09T02:42:36.962Z,21.98
2016-12-09T02:42:54.129Z,22.07
2016-12-09T02:43:11.305Z,21.98
2016-12-09T02:43:28.474Z,22
2016-12-09T02:43:45.634Z,22.12
2016-12-09T02:44:02.835Z,22.16
2016-12-09T02:44:20.067Z,22.13
2016-12-09T02:44:37.240Z,22.16
2016-12-09T02:44:54.426Z,22.15
2016-12-09T02:45:11.622Z,22.15
2016-12-09T02:45:28.862Z,22.19
2016-12-09T02:45:46.073Z,22.15
2016-12-09T02:46:03.254Z,22.13
2016-12-09T02:46:20.432Z,22.1
2016-12-09T02:46:37.621Z,22.12
2016-12-09T02:46:54.797Z,22.17
2016-12-09T02:47:11.977Z,22.04
2016-12-09T02:47:29.132Z,22.02
2016-12-09T02:47:46.326Z,22.05
2016-12-09T02:48:03.523Z,22.02
2016-12-09T02:48:20.737Z,22.05
2016-12-09T02:48:37.924Z,22.05
2016-12-09T02:48:55.110Z,22.02
2016-12-09T02:49:12.311Z,22
2016-12-09T02:49:29.488Z,22.01
2016-12-09T02:49:46.671Z,22
2016-12-09T02:50:03.849Z,21.98
2016-12-09T02:50:21.092Z,21.95
2016-12-09T02:50:38.287Z,21.85
2016-12-09T02:50:55.497Z,21.86
2016-12-09T02:51:12.684Z,21.84
2016-12-09T02:51:29.897Z,21.89
2016-12-09T02:51:47.080Z,21.98
2016-12-09T02:52:04.264Z,21.86
2016-12-09T02:52:21.516Z,21.98
2016-12-09T02:52:38.723Z,21.91
2016-12-09T02:52:55.922Z,21.91
2016-12-09T02:53:13.119Z,21.91
2016-12-09T02:53:30.301Z,21.79
2016-12-09T02:53:47.476Z,21.86
2016-12-09T02:54:04.644Z,21.79
2016-12-09T02:54:21.800Z,21.76
2016-12-09T02:54:38.988Z,21.74
2016-12-09T02:54:56.169Z,21.7
2016-12-09T02:55:13.350Z,21.79
2016-12-09T02:55:30.529Z,21.78
2016-12-09T02:55:47.708Z,21.85
2016-12-09T02:56:04.902Z,21.85
2016-12-09T02:56:22.080Z,21.89
2016-12-09T02:56:39.249Z,21.81
2016-12-09T02:56:56.467Z,21.75
2016-12-09T02:57:13.654Z,21.82
2016-12-09T02:57:30.843Z,21.75
2016-12-09T02:57:48.003Z,21.81
2016-12-09T02:58:05.190Z,21.78
2016-12-09T02:58:22.406Z,21.79
2016-12-09T02:58:39.604Z,21.72
2016-12-09T02:58:56.778Z,21.69
2016-12-09T02:59:13.968Z,21.74
2016-12-09T02:59:31.156Z,21.66
2016-12-09T02:59:48.338Z,21.66
2016-12-09T03:00:05.499Z,21.64
2016-12-09T03:00:22.675Z,21.74
2016-12-09T03:00:39.889Z,21.67
2016-12-09T03:00:57.467Z,21.72
2016-12-09T03:01:14.674Z,21.67
2016-12-09T03:01:31.899Z,21.64
2016-12-09T03:01:49.066Z,21.72
2016-12-09T03:02:06.239Z,21.63
2016-12-09T03:02:23.428Z,21.81
2016-12-09T03:02:40.614Z,21.79
2016-12-09T03:02:57.772Z,21.74
2016-12-09T03:03:14.969Z,21.7
2016-12-09T03:03:32.813Z,21.79
2016-12-09T03:03:50.451Z,21.75
2016-12-09T03:04:08.499Z,21.84
2016-12-09T03:04:29.450Z,21.76
2016-12-09T03:04:48.707Z,21.74
